Time;durP1;ratioP1;P1;durP2;ratioP2;P2;SDS_P1;SDS_P2;PMS_P1;PMS_P2;Temp;Humidity;BMP_temperature;BMP_pressure;BME280_temperature;BME280_humidity;BME280_pressure;Samples;Min_cycle;Max_cycle;Signal;HPM_P1;HPM_P2
2022/06/15 00:01:47;;;;;;;5.80;2.72;;;14.00;99.90;;;;;;5053120;28;20223;-58
2022/06/15 00:04:13;;;;;;;9.57;2.70;;;14.10;99.90;;;;;;5053046;28;20227;-58
2022/06/15 00:06:41;;;;;;;4.93;2.65;;;14.10;99.90;;;;;;5052907;28;20221;-57
2022/06/15 00:09:08;;;;;;;7.43;3.17;;;14.10;99.90;;;;;;5053022;28;20208;-58
2022/06/15 00:11:38;;;;;;;9.73;3.08;;;14.10;99.90;;;;;;5052979;28;20178;-58
2022/06/15 00:14:13;;;;;;;6.68;2.88;;;14.10;99.90;;;;;;5052843;28;20488;-58
2022/06/15 00:16:39;;;;;;;8.57;2.80;;;14.00;99.90;;;;;;5052740;28;20176;-58
2022/06/15 00:19:05;;;;;;;6.07;2.95;;;14.00;99.90;;;;;;5052620;28;20253;-57
2022/06/15 00:21:32;;;;;;;8.80;3.25;;;14.00;99.90;;;;;;5052620;28;20208;-57
2022/06/15 00:23:58;;;;;;;13.18;3.05;;;13.90;99.90;;;;;;5052516;28;20734;-58
2022/06/15 00:26:24;;;;;;;11.77;3.25;;;13.80;99.90;;;;;;5052577;28;20244;-58
2022/06/15 00:28:51;;;;;;;5.80;3.00;;;13.80;99.90;;;;;;5052520;28;20209;-58
2022/06/15 00:31:18;;;;;;;9.25;2.70;;;13.80;99.90;;;;;;5052523;28;20185;-58
2022/06/15 00:33:44;;;;;;;10.77;3.22;;;13.80;99.90;;;;;;5052452;28;20177;-58
2022/06/15 00:36:12;;;;;;;10.40;3.47;;;13.70;99.90;;;;;;5052277;28;20165;-59
2022/06/15 00:38:48;;;;;;;6.22;2.80;;;13.60;99.90;;;;;;5052397;28;20316;-58
2022/06/15 00:41:19;;;;;;;6.03;2.65;;;13.70;99.90;;;;;;5052295;28;20176;-58
2022/06/15 00:43:56;;;;;;;7.35;3.00;;;13.60;99.90;;;;;;5052299;28;20181;-57
2022/06/15 00:46:38;;;;;;;5.90;2.72;;;13.60;99.90;;;;;;5052034;28;20555;-57
2022/06/15 00:49:22;;;;;;;8.15;2.88;;;13.60;99.90;;;;;;5052059;28;20221;-58
2022/06/15 00:51:51;;;;;;;13.27;3.10;;;13.60;99.90;;;;;;5052137;28;20181;-58
2022/06/15 00:54:17;;;;;;;7.40;2.92;;;13.60;99.90;;;;;;5052162;28;20222;-58
2022/06/15 00:56:43;;;;;;;6.95;3.08;;;13.60;99.90;;;;;;5051980;28;20162;-57
2022/06/15 00:59:33;;;;;;;6.85;3.00;;;13.60;99.90;;;;;;5051400;28;20189;-58
2022/06/15 01:02:00;;;;;;;7.47;3.15;;;13.50;99.90;;;;;;5051961;28;20177;-58
2022/06/15 01:04:38;;;;;;;10.23;3.05;;;13.50;99.90;;;;;;5051838;28;20177;-58
2022/06/15 01:07:06;;;;;;;8.70;3.40;;;13.50;99.90;;;;;;5051728;28;20173;-57
2022/06/15 01:09:45;;;;;;;9.57;3.00;;;13.50;99.90;;;;;;5051622;28;20220;-58
2022/06/15 01:12:35;;;;;;;6.25;2.95;;;13.40;99.90;;;;;;5051893;28;20176;-57
2022/06/15 01:15:13;;;;;;;8.60;3.40;;;13.40;99.90;;;;;;5051703;28;20176;-58
2022/06/15 01:18:15;;;;;;;7.57;2.97;;;13.40;99.90;;;;;;5050360;28;20509;-58
2022/06/15 01:21:17;;;;;;;8.85;3.05;;;13.50;99.90;;;;;;5047712;28;20185;-57
2022/06/15 01:24:08;;;;;;;6.35;2.88;;;13.40;99.90;;;;;;5051493;28;20178;-58
2022/06/15 01:26:58;;;;;;;11.10;2.90;;;13.40;99.90;;;;;;5051515;28;20189;-57
2022/06/15 01:29:42;;;;;;;8.55;3.15;;;13.40;99.90;;;;;;5051337;28;20251;-60
2022/06/15 01:32:23;;;;;;;6.88;3.00;;;13.30;99.90;;;;;;5051301;28;20173;-58
2022/06/15 01:35:38;;;;;;;9.05;3.40;;;12.20;99.90;;;;;;5051302;28;20203;-59
2022/06/15 01:38:22;;;;;;;6.40;2.75;;;13.10;99.90;;;;;;5017481;28;20585;-58
2022/06/15 01:41:09;;;;;;;6.88;3.55;;;13.50;99.90;;;;;;5051236;28;20250;-58
2022/06/15 01:43:48;;;;;;;7.65;3.20;;;13.40;99.90;;;;;;5051261;28;20169;-58
2022/06/15 01:46:13;;;;;;;13.93;3.78;;;13.30;99.90;;;;;;5051040;28;20535;-59
2022/06/15 01:48:40;;;;;;;6.63;3.10;;;13.50;99.90;;;;;;5050711;28;20259;-57
2022/06/15 01:51:13;;;;;;;10.45;3.40;;;13.40;99.90;;;;;;5051137;28;20556;-57
2022/06/15 01:53:54;;;;;;;7.60;3.10;;;13.40;99.90;;;;;;5050985;28;20164;-57
2022/06/15 01:56:29;;;;;;;13.30;3.45;;;13.60;99.90;;;;;;5050887;28;20172;-57
2022/06/15 01:59:01;;;;;;;11.93;4.28;;;13.40;99.90;;;;;;5045330;28;20192;-57
2022/06/15 02:01:35;;;;;;;8.68;3.50;;;13.50;99.90;;;;;;5043884;28;20258;-57
2022/06/15 02:04:19;;;;;;;12.07;3.40;;;13.40;99.90;;;;;;5049952;28;20169;-57
2022/06/15 02:07:21;;;;;;;7.18;2.78;;;13.40;99.90;;;;;;5030872;28;20172;-57
2022/06/15 02:09:49;;;;;;;9.18;3.35;;;13.20;99.90;;;;;;5030600;28;20698;-57
2022/06/15 02:12:21;;;;;;;11.70;3.70;;;13.10;99.90;;;;;;5030912;28;20174;-57
2022/06/15 02:14:53;;;;;;;13.15;3.35;;;13.00;99.90;;;;;;5030867;28;20182;-57
2022/06/15 02:17:28;;;;;;;7.65;3.35;;;12.90;99.90;;;;;;5030709;28;20575;-59
2022/06/15 02:20:07;;;;;;;11.73;3.60;;;13.00;99.90;;;;;;5030700;28;20176;-57
2022/06/15 02:22:35;;;;;;;10.07;3.40;;;12.90;99.90;;;;;;5030725;28;20171;-57
2022/06/15 02:25:07;;;;;;;8.52;3.42;;;13.00;99.90;;;;;;5030647;28;20253;-57
2022/06/15 02:27:34;;;;;;;9.57;3.45;;;13.00;99.90;;;;;;5030648;28;20189;-57
2022/06/15 02:30:07;;;;;;;11.77;3.42;;;13.00;99.90;;;;;;5030634;28;20220;-57
2022/06/15 02:32:36;;;;;;;12.43;3.70;;;13.00;99.90;;;;;;5030546;28;20196;-57
2022/06/15 02:35:03;;;;;;;4.73;3.03;;;13.00;99.90;;;;;;5030819;28;20272;-57
2022/06/15 02:37:29;;;;;;;8.23;3.42;;;12.90;99.90;;;;;;5030418;28;20185;-57
2022/06/15 02:39:54;;;;;;;7.90;3.55;;;12.90;99.90;;;;;;5030516;28;20241;-57
2022/06/15 02:42:35;;;;;;;10.15;3.25;;;12.80;99.90;;;;;;5030424;28;20200;-57
2022/06/15 02:45:29;;;;;;;12.23;3.42;;;12.80;99.90;;;;;;5030439;28;20173;-57
2022/06/15 02:47:56;;;;;;;8.85;3.65;;;12.70;99.90;;;;;;5029829;28;20221;-56
2022/06/15 02:50:26;;;;;;;9.43;3.65;;;12.70;99.90;;;;;;5030409;28;20597;-57
2022/06/15 02:53:01;;;;;;;13.93;3.42;;;12.80;99.90;;;;;;5030342;28;20170;-57
2022/06/15 02:55:28;;;;;;;6.07;3.53;;;12.70;99.90;;;;;;5030366;28;20365;-57
2022/06/15 02:58:21;;;;;;;14.10;3.63;;;12.80;99.90;;;;;;5030352;28;20266;-57
2022/06/15 03:00:46;;;;;;;11.63;3.97;;;12.80;99.90;;;;;;5030201;28;20214;-57
2022/06/15 03:03:13;;;;;;;9.40;3.50;;;12.80;99.90;;;;;;5030381;28;20606;-57
2022/06/15 03:05:41;;;;;;;10.57;3.27;;;12.80;99.90;;;;;;5030340;28;20220;-56
2022/06/15 03:08:06;;;;;;;6.53;3.33;;;12.80;99.90;;;;;;5030163;28;20241;-58
2022/06/15 03:10:32;;;;;;;12.20;3.95;;;12.80;99.90;;;;;;5030158;28;20696;-57
2022/06/15 03:12:58;;;;;;;6.88;3.00;;;12.80;99.90;;;;;;5030247;28;20208;-57
2022/06/15 03:15:24;;;;;;;8.13;3.67;;;12.80;99.90;;;;;;5030275;28;20625;-57
2022/06/15 03:17:53;;;;;;;7.35;3.15;;;12.70;99.90;;;;;;5030166;28;20170;-58
2022/06/15 03:20:19;;;;;;;9.10;3.90;;;12.70;99.90;;;;;;5030268;28;20162;-57
2022/06/15 03:22:45;;;;;;;13.95;4.10;;;12.70;99.90;;;;;;5032385;28;20695;-56
2022/06/15 03:25:11;;;;;;;8.97;3.90;;;12.70;99.90;;;;;;5033850;28;20644;-57
2022/06/15 03:27:37;;;;;;;10.47;3.60;;;12.70;99.90;;;;;;5033757;28;20231;-58
2022/06/15 03:30:06;;;;;;;9.75;3.55;;;12.70;99.90;;;;;;5033689;28;20636;-57
2022/06/15 03:32:32;;;;;;;9.02;3.33;;;12.70;99.90;;;;;;5033649;28;20265;-57
2022/06/15 03:34:57;;;;;;;9.32;3.85;;;12.70;99.90;;;;;;5033429;28;20594;-56
2022/06/15 03:37:23;;;;;;;9.50;3.50;;;12.60;99.90;;;;;;5033932;28;20316;-60
2022/06/15 03:39:49;;;;;;;7.45;3.60;;;12.70;99.90;;;;;;5033711;28;20173;-57
2022/06/15 03:42:20;;;;;;;12.90;3.65;;;12.70;99.90;;;;;;5033633;28;20533;-56
2022/06/15 03:44:45;;;;;;;11.02;4.22;;;12.70;99.90;;;;;;5033514;28;20186;-57
2022/06/15 03:47:18;;;;;;;13.75;4.25;;;12.70;99.90;;;;;;5033597;28;20200;-57
2022/06/15 03:49:44;;;;;;;8.43;3.70;;;12.60;99.90;;;;;;5033238;28;20714;-57
2022/06/15 03:52:11;;;;;;;7.63;4.30;;;12.70;99.90;;;;;;5033744;28;20189;-56
2022/06/15 03:54:37;;;;;;;11.35;4.25;;;12.60;99.90;;;;;;5033479;28;20275;-57
2022/06/15 03:57:04;;;;;;;12.50;4.73;;;12.50;99.90;;;;;;5033511;28;20207;-58
2022/06/15 03:59:30;;;;;;;11.88;3.63;;;12.40;99.90;;;;;;5033395;28;20719;-57
2022/06/15 04:01:56;;;;;;;6.43;3.97;;;12.40;99.90;;;;;;5033344;28;20269;-57
2022/06/15 04:04:22;;;;;;;11.77;4.70;;;12.50;99.90;;;;;;5033281;28;20603;-57
2022/06/15 04:06:49;;;;;;;8.00;4.20;;;12.40;99.90;;;;;;5033353;28;20162;-57
2022/06/15 04:09:22;;;;;;;11.53;3.83;;;12.40;99.90;;;;;;5034820;28;20249;-57
2022/06/15 04:11:58;;;;;;;12.93;4.47;;;12.30;99.90;;;;;;5051922;28;20273;-57
2022/06/15 04:14:24;;;;;;;12.20;4.13;;;12.30;99.90;;;;;;5053018;28;20177;-57
2022/06/15 04:16:53;;;;;;;12.43;4.90;;;12.40;99.90;;;;;;5053019;28;20583;-57
2022/06/15 04:19:32;;;;;;;10.10;4.67;;;12.40;99.90;;;;;;5052995;28;20181;-57
2022/06/15 04:21:58;;;;;;;11.00;4.30;;;12.30;99.90;;;;;;5052963;28;20173;-57
2022/06/15 04:24:26;;;;;;;8.53;4.67;;;12.30;99.90;;;;;;5052994;28;20635;-58
2022/06/15 04:26:53;;;;;;;12.30;3.97;;;12.30;99.90;;;;;;5052824;28;20177;-56
2022/06/15 04:29:20;;;;;;;10.83;4.03;;;12.30;99.90;;;;;;5034907;28;20213;-57
2022/06/15 04:31:47;;;;;;;8.73;3.80;;;12.30;99.90;;;;;;5053100;28;20432;-57
2022/06/15 04:34:13;;;;;;;9.20;3.87;;;12.00;99.90;;;;;;5033896;28;20227;-57
2022/06/15 04:36:41;;;;;;;12.10;4.23;;;12.10;99.90;;;;;;5051585;28;20173;-57
2022/06/15 04:39:10;;;;;;;11.87;4.27;;;12.10;99.90;;;;;;5052982;28;20280;-58
2022/06/15 04:41:39;;;;;;;15.40;4.63;;;12.00;99.90;;;;;;5051655;28;20180;-56
2022/06/15 04:44:06;;;;;;;10.90;4.17;;;12.10;99.90;;;;;;5052596;28;20221;-57
2022/06/15 04:46:32;;;;;;;8.00;4.23;;;12.00;99.90;;;;;;5052815;28;20177;-57
2022/06/15 04:49:01;;;;;;;12.43;4.60;;;12.10;99.90;;;;;;5052307;28;20237;-57
2022/06/15 04:51:29;;;;;;;13.37;4.87;;;12.10;99.90;;;;;;5052882;28;20666;-58
2022/06/15 04:53:57;;;;;;;11.70;5.03;;;12.10;99.90;;;;;;5052956;28;20209;-58
2022/06/15 04:56:24;;;;;;;17.73;5.20;;;12.20;99.90;;;;;;5051244;28;20268;-58
2022/06/15 04:58:50;;;;;;;10.17;5.70;;;12.20;99.90;;;;;;5052384;28;20213;-58
2022/06/15 05:01:16;;;;;;;15.80;5.60;;;12.20;99.90;;;;;;5051362;28;20272;-57
2022/06/15 05:03:43;;;;;;;12.50;5.30;;;12.30;99.90;;;;;;5052386;28;20169;-58
2022/06/15 05:06:33;;;;;;;12.47;5.33;;;12.30;99.90;;;;;;5052427;28;20173;-58
2022/06/15 05:09:00;;;;;;;17.37;5.80;;;12.40;99.90;;;;;;5051862;28;20232;-57
2022/06/15 05:11:29;;;;;;;16.23;5.70;;;;;;;;;;5052311;28;20165;-57
2022/06/15 05:13:55;;;;;;;22.08;5.32;;;12.40;99.90;;;;;;5051806;28;20590;-58
2022/06/15 05:16:25;;;;;;;14.00;5.67;;;12.50;99.90;;;;;;5052067;28;20705;-57
2022/06/15 05:18:51;;;;;;;13.10;5.87;;;12.60;99.90;;;;;;5052158;28;20169;-58
2022/06/15 05:21:20;;;;;;;13.52;5.90;;;12.70;99.90;;;;;;5052096;28;20173;-57
2022/06/15 05:23:46;;;;;;;12.47;6.10;;;12.70;99.90;;;;;;5052158;28;20169;-57
2022/06/15 05:26:13;;;;;;;12.27;5.80;;;12.80;99.90;;;;;;5051879;28;20306;-56
2022/06/15 05:28:44;;;;;;;18.30;6.43;;;12.80;99.90;;;;;;5051838;28;20243;-58
2022/06/15 05:31:14;;;;;;;22.23;6.55;;;13.00;99.90;;;;;;5051746;28;20184;-57
2022/06/15 05:33:43;;;;;;;9.73;5.60;;;13.00;99.90;;;;;;5033900;28;20200;-57
2022/06/15 05:36:12;;;;;;;14.85;6.75;;;13.10;99.90;;;;;;5033752;28;20660;-57
2022/06/15 05:38:40;;;;;;;17.77;5.63;;;13.20;99.90;;;;;;5033915;28;20816;-57
2022/06/15 05:41:08;;;;;;;17.88;6.28;;;13.20;99.90;;;;;;5051987;28;20169;-57
2022/06/15 05:43:37;;;;;;;14.85;5.68;;;13.30;99.90;;;;;;5051688;28;20180;-57
2022/06/15 05:46:18;;;;;;;14.60;6.15;;;13.30;99.90;;;;;;5051092;28;20201;-57
2022/06/15 05:48:44;;;;;;;15.50;5.55;;;13.40;99.90;;;;;;5051099;28;20229;-57
2022/06/15 05:51:10;;;;;;;11.27;5.20;;;13.60;99.90;;;;;;5050033;28;20224;-57
2022/06/15 05:53:36;;;;;;;19.90;5.45;;;13.60;99.90;;;;;;5051415;28;20543;-58
2022/06/15 05:56:02;;;;;;;15.35;5.95;;;13.60;99.90;;;;;;5050357;28;20374;-58
2022/06/15 05:58:33;;;;;;;13.57;5.78;;;13.70;99.90;;;;;;5051333;28;20176;-57
2022/06/15 06:01:24;;;;;;;15.20;5.40;;;13.70;99.90;;;;;;5033505;28;20199;-57
2022/06/15 06:03:49;;;;;;;21.27;5.78;;;14.00;99.90;;;;;;5051069;28;20683;-57
2022/06/15 06:06:15;;;;;;;16.40;5.93;;;13.90;99.90;;;;;;5051057;28;20284;-57
2022/06/15 06:08:41;;;;;;;14.27;5.72;;;13.90;99.90;;;;;;5050638;28;20673;-57
2022/06/15 06:11:07;;;;;;;12.45;5.22;;;14.00;99.90;;;;;;5050801;28;20252;-57
2022/06/15 06:13:33;;;;;;;17.58;5.25;;;14.10;99.90;;;;;;5039193;28;20260;-57
2022/06/15 06:15:58;;;;;;;18.67;4.97;;;14.20;99.90;;;;;;5048728;28;20220;-57
2022/06/15 06:18:24;;;;;;;16.88;5.60;;;14.20;99.90;;;;;;5028381;28;20176;-57
2022/06/15 06:20:51;;;;;;;14.73;5.07;;;14.30;99.90;;;;;;5031042;28;20174;-57
2022/06/15 06:23:17;;;;;;;14.25;5.30;;;14.30;99.90;;;;;;5030782;28;20182;-57
2022/06/15 06:25:46;;;;;;;16.35;5.00;;;14.70;99.90;;;;;;5030797;28;20704;-57
2022/06/15 06:28:23;;;;;;;14.82;5.70;;;14.50;99.90;;;;;;5030823;28;21290;-58
2022/06/15 06:30:49;;;;;;;13.88;5.70;;;14.50;99.90;;;;;;5037159;28;20263;-58
2022/06/15 06:33:14;;;;;;;18.52;5.68;;;14.70;99.90;;;;;;5050786;28;20604;-57
2022/06/15 06:35:40;;;;;;;14.98;5.68;;;14.70;99.90;;;;;;5050430;28;20181;-56
2022/06/15 06:38:06;;;;;;;13.82;5.57;;;14.80;99.90;;;;;;5050445;28;20252;-57
2022/06/15 06:40:32;;;;;;;15.20;6.32;;;14.90;99.90;;;;;;5050585;28;20208;-58
2022/06/15 06:42:58;;;;;;;16.67;5.88;;;14.90;99.90;;;;;;5050529;28;20173;-58
2022/06/15 06:45:23;;;;;;;15.93;5.63;;;15.00;99.90;;;;;;5050615;28;20173;-58
2022/06/15 06:47:49;;;;;;;17.98;5.60;;;15.10;99.90;;;;;;5050453;28;20567;-57
2022/06/15 06:50:15;;;;;;;16.83;5.85;;;15.20;99.90;;;;;;5050254;28;20217;-58
2022/06/15 06:52:41;;;;;;;15.57;5.40;;;15.30;99.90;;;;;;5050545;28;20219;-57
2022/06/15 06:55:07;;;;;;;8.32;4.45;;;15.40;99.90;;;;;;5050383;28;20181;-57
2022/06/15 06:57:33;;;;;;;12.90;4.85;;;15.40;99.90;;;;;;5052451;28;20252;-57
2022/06/15 06:59:59;;;;;;;9.77;4.78;;;15.50;99.90;;;;;;5054278;28;20189;-58
2022/06/15 07:02:24;;;;;;;13.32;4.82;;;15.60;99.90;;;;;;5054327;28;20226;-57
2022/06/15 07:04:50;;;;;;;9.55;4.90;;;15.90;99.90;;;;;;5054141;28;20203;-58
2022/06/15 07:07:16;;;;;;;13.65;4.70;;;15.80;99.90;;;;;;5048235;28;20174;-57
2022/06/15 07:09:41;;;;;;;13.50;5.07;;;15.90;99.90;;;;;;5033985;28;20308;-56
2022/06/15 07:12:07;;;;;;;11.38;5.47;;;15.90;99.90;;;;;;5034450;28;20177;-58
2022/06/15 07:14:33;;;;;;;12.00;4.55;;;16.00;99.90;;;;;;5034194;28;20170;-58
2022/06/15 07:16:59;;;;;;;18.77;5.60;;;16.00;99.90;;;;;;5032983;28;20178;-56
2022/06/15 07:19:25;;;;;;;11.68;5.32;;;16.20;99.90;;;;;;5034006;28;20209;-57
2022/06/15 07:21:50;;;;;;;11.68;4.85;;;16.30;99.90;;;;;;5034011;28;20193;-57
2022/06/15 07:24:16;;;;;;;13.52;5.45;;;16.40;99.90;;;;;;5033744;28;20192;-56
2022/06/15 07:26:47;;;;;;;12.73;4.90;;;16.50;99.90;;;;;;5033846;28;20170;-56
2022/06/15 07:29:19;;;;;;;8.80;4.82;;;16.60;99.90;;;;;;5033655;28;20846;-56
2022/06/15 07:31:53;;;;;;;12.82;5.28;;;16.60;99.90;;;;;;5033607;28;20637;-56
2022/06/15 07:34:19;;;;;;;13.20;5.38;;;16.60;99.90;;;;;;5033519;28;20269;-56
2022/06/15 07:36:48;;;;;;;13.38;5.30;;;16.80;99.90;;;;;;5033402;28;20166;-57
2022/06/15 07:39:19;;;;;;;13.05;5.55;;;16.90;99.90;;;;;;5033498;28;20174;-57
2022/06/15 07:41:45;;;;;;;16.02;5.13;;;17.00;99.90;;;;;;5033452;28;20166;-57
2022/06/15 07:44:12;;;;;;;14.82;5.10;;;17.00;99.90;;;;;;5033414;28;20651;-57
2022/06/15 07:46:37;;;;;;;12.15;5.30;;;17.10;99.90;;;;;;5033270;28;20232;-56
2022/06/15 07:51:57;;;;;;;10.93;4.07;;;17.40;99.90;;;;;;5033274;28;20181;-56
2022/06/15 07:54:24;;;;;;;11.15;4.20;;;17.50;99.90;;;;;;5033131;28;20181;-57
2022/06/15 07:56:52;;;;;;;8.82;4.20;;;17.60;99.90;;;;;;5033250;28;20170;-57
2022/06/15 07:59:18;;;;;;;9.43;3.88;;;17.60;99.90;;;;;;5033322;28;20239;-57
2022/06/15 08:01:45;;;;;;;17.23;4.35;;;17.70;99.90;;;;;;5033313;28;20166;-57
2022/06/15 08:04:12;;;;;;;13.63;3.58;;;17.70;99.90;;;;;;5033309;28;20208;-56
2022/06/15 08:06:41;;;;;;;10.15;3.70;;;17.80;99.90;;;;;;5033325;28;20221;-57
2022/06/15 08:09:09;;;;;;;11.73;4.03;;;17.90;99.90;;;;;;5032999;28;20237;-57
2022/06/15 08:11:36;;;;;;;15.75;3.60;;;17.90;99.90;;;;;;5033131;28;20221;-57
2022/06/15 08:14:02;;;;;;;7.47;3.60;;;18.00;99.90;;;;;;5032955;28;20178;-57
2022/06/15 08:16:28;;;;;;;11.07;3.75;;;18.10;99.90;;;;;;5031464;28;20185;-57
2022/06/15 08:18:58;;;;;;;8.95;3.33;;;18.20;99.90;;;;;;5033038;28;20178;-58
2022/06/15 08:21:31;;;;;;;12.23;3.88;;;18.50;99.90;;;;;;5033201;28;20182;-58
2022/06/15 08:23:59;;;;;;;16.52;3.92;;;18.60;99.90;;;;;;5033016;28;20165;-58
2022/06/15 08:26:30;;;;;;;16.33;3.75;;;18.60;99.90;;;;;;5033028;28;20197;-58
2022/06/15 08:29:00;;;;;;;11.23;3.80;;;18.80;99.90;;;;;;5033009;28;20210;-58
2022/06/15 08:31:26;;;;;;;13.00;3.95;;;19.00;99.90;;;;;;5031528;28;20174;-58
2022/06/15 08:33:52;;;;;;;14.32;3.92;;;19.20;99.90;;;;;;5032698;28;20174;-58
2022/06/15 08:36:19;;;;;;;12.45;3.95;;;19.40;99.90;;;;;;5032698;28;20292;-58
2022/06/15 08:38:45;;;;;;;12.27;3.80;;;19.50;99.90;;;;;;5032700;28;20611;-58
2022/06/15 08:41:31;;;;;;;11.82;3.35;;;19.70;99.90;;;;;;5032572;28;20679;-58
2022/06/15 08:44:38;;;;;;;12.07;3.42;;;19.80;99.90;;;;;;5032645;28;20194;-58
2022/06/15 08:47:04;;;;;;;10.88;3.30;;;20.70;99.90;;;;;;5026968;28;20651;-58
2022/06/15 08:49:42;;;;;;;14.60;3.58;;;20.70;99.90;;;;;;5032405;28;20299;-58
2022/06/15 08:52:24;;;;;;;9.95;3.42;;;21.00;99.90;;;;;;5032361;28;20173;-57
2022/06/15 08:55:03;;;;;;;8.88;3.22;;;21.40;99.90;;;;;;5032493;28;20193;-57
2022/06/15 08:57:40;;;;;;;10.20;3.28;;;21.70;99.90;;;;;;5031107;28;20608;-58
2022/06/15 09:00:23;;;;;;;9.70;3.28;;;22.10;99.90;;;;;;5032318;28;20249;-58
2022/06/15 09:03:11;;;;;;;8.45;3.25;;;21.70;99.90;;;;;;5032235;28;20640;-58
2022/06/15 09:06:00;;;;;;;11.00;3.28;;;22.20;99.90;;;;;;5032301;28;20170;-58
2022/06/15 09:08:31;;;;;;;11.05;3.28;;;22.60;99.90;;;;;;5032097;28;20204;-58
2022/06/15 09:11:07;;;;;;;12.35;3.35;;;22.70;99.90;;;;;;5032034;28;20181;-58
2022/06/15 09:13:44;;;;;;;9.35;2.70;;;22.80;99.90;;;;;;5034766;28;20256;-58
2022/06/15 09:16:38;;;;;;;11.95;2.50;;;22.80;99.90;;;;;;5051918;28;20177;-58
2022/06/15 09:19:08;;;;;;;11.00;2.47;;;23.10;99.90;;;;;;5041090;28;20170;-57
2022/06/15 09:22:01;;;;;;;6.53;2.40;;;23.30;99.90;;;;;;5031744;28;20177;-57
2022/06/15 09:24:53;;;;;;;8.43;2.47;;;23.50;99.90;;;;;;5029714;28;20255;-58
2022/06/15 09:27:33;;;;;;;11.65;2.90;;;23.10;99.90;;;;;;5029636;28;20613;-57
2022/06/15 09:30:11;;;;;;;13.52;2.95;;;23.40;99.90;;;;;;5031731;28;20240;-58
2022/06/15 09:32:41;;;;;;;7.63;2.40;;;23.20;99.90;;;;;;5031881;28;20177;-57
2022/06/15 09:35:24;;;;;;;12.02;2.50;;;23.10;99.90;;;;;;5031690;28;20248;-57
2022/06/15 09:37:53;;;;;;;6.00;2.10;;;23.00;99.90;;;;;;5031783;28;20177;-57
2022/06/15 09:40:19;;;;;;;6.15;2.60;;;23.10;99.90;;;;;;5031458;28;20165;-57
2022/06/15 09:43:10;;;;;;;9.10;2.42;;;23.00;99.90;;;;;;5031454;28;20173;-57
2022/06/15 09:45:51;;;;;;;9.30;2.30;;;23.00;99.90;;;;;;5031495;28;20264;-58
2022/06/15 09:48:26;;;;;;;7.53;2.38;;;23.20;99.90;;;;;;5031120;28;20217;-57
2022/06/15 09:51:01;;;;;;;8.40;2.67;;;23.50;99.90;;;;;;5031533;28;20177;-57
2022/06/15 09:53:49;;;;;;;10.05;2.17;;;23.70;99.90;;;;;;5031133;28;20179;-57
2022/06/15 09:56:17;;;;;;;10.02;2.53;;;23.70;99.90;;;;;;5031136;28;20221;-57
2022/06/15 09:58:54;;;;;;;8.32;2.53;;;23.80;99.90;;;;;;5031157;28;20178;-57
2022/06/15 10:01:21;;;;;;;9.63;2.78;;;24.20;99.90;;;;;;5031239;28;20193;-57
2022/06/15 10:03:49;;;;;;;11.60;2.60;;;24.30;99.90;;;;;;5031196;28;20260;-57
2022/06/15 10:06:28;;;;;;;13.15;2.58;;;24.30;99.90;;;;;;5039052;28;20177;-57
2022/06/15 10:08:55;;;;;;;6.07;2.05;;;24.30;99.90;;;;;;5050244;28;20216;-57
2022/06/15 10:11:30;;;;;;;9.05;2.55;;;24.50;99.90;;;;;;5047505;28;20181;-57
2022/06/15 10:13:56;;;;;;;13.00;2.70;;;23.80;99.90;;;;;;5040164;28;20234;-57
2022/06/15 10:16:31;;;;;;;9.70;2.70;;;23.60;99.90;;;;;;5050111;28;20180;-58
2022/06/15 10:18:59;;;;;;;8.98;2.47;;;23.80;99.90;;;;;;5050872;28;20202;-58
2022/06/15 10:21:26;;;;;;;8.43;2.10;;;24.00;99.90;;;;;;5050857;28;20312;-58
2022/06/15 10:23:58;;;;;;;9.13;2.22;;;24.20;99.90;;;;;;5050721;28;20203;-58
2022/06/15 10:26:29;;;;;;;8.57;2.38;;;24.80;99.90;;;;;;5050941;28;20173;-58
2022/06/15 10:28:56;;;;;;;5.93;2.05;;;25.00;99.90;;;;;;5050552;28;20536;-57
2022/06/15 10:31:34;;;;;;;9.25;2.60;;;24.70;99.90;;;;;;5052643;28;20181;-58
2022/06/15 10:34:26;;;;;;;7.65;2.53;;;24.40;99.90;;;;;;5054843;28;20208;-59
2022/06/15 10:36:54;;;;;;;10.63;2.35;;;24.10;99.90;;;;;;5054839;28;20173;-59
2022/06/15 10:39:25;;;;;;;10.25;2.60;;;24.70;99.90;;;;;;5054943;28;20165;-59
2022/06/15 10:41:51;;;;;;;7.90;2.17;;;24.70;99.90;;;;;;5054987;28;20653;-59
2022/06/15 10:44:34;;;;;;;7.85;2.00;;;25.30;99.90;;;;;;5037103;28;20196;-59
2022/06/15 10:47:07;;;;;;;11.88;2.70;;;25.50;99.90;;;;;;5054906;28;20173;-59
2022/06/15 10:49:41;;;;;;;7.82;2.33;;;25.70;99.90;;;;;;5054536;28;20232;-59
2022/06/15 10:52:32;;;;;;;7.50;2.53;;;25.60;99.90;;;;;;5054496;28;20236;-58
2022/06/15 11:03:40;;;;;;;6.55;2.33;;;26.70;99.90;;;;;;5054764;28;20588;-59
2022/06/15 11:06:06;;;;;;;7.25;2.30;;;27.00;99.90;;;;;;5054567;28;20169;-58
2022/06/15 11:08:34;;;;;;;11.25;2.70;;;27.70;99.90;;;;;;5054499;28;20221;-59
2022/06/15 11:11:26;;;;;;;12.95;2.90;;;27.90;99.90;;;;;;5054473;28;20207;-59
2022/06/15 11:14:03;;;;;;;11.57;2.28;;;27.80;99.90;;;;;;5054426;28;20640;-59
2022/06/15 11:19:23;;;;;;;7.55;2.45;;;27.60;99.90;;;;;;5054667;28;20283;-57
2022/06/15 11:21:55;;;;;;;4.55;2.33;;;27.90;99.90;;;;;;5040504;28;20276;-59
2022/06/15 11:24:58;;;;;;;12.73;2.78;;;27.50;99.90;;;;;;5054250;28;20174;-58
2022/06/15 11:27:36;;;;;;;4.95;2.28;;;28.10;99.90;;;;;;5054007;28;20215;-58
2022/06/15 11:30:25;;;;;;;5.45;2.38;;;28.30;99.90;;;;;;5053848;28;20291;-58
2022/06/15 11:33:00;;;;;;;10.50;2.17;;;28.30;99.90;;;;;;5053945;28;20185;-58
2022/06/15 11:35:57;;;;;;;7.45;2.20;;;28.60;99.90;;;;;;5053944;28;20173;-57
2022/06/15 11:38:56;;;;;;;12.98;2.72;;;28.60;99.90;;;;;;5053650;28;20177;-58
2022/06/15 11:41:33;;;;;;;10.43;2.35;;;28.20;99.90;;;;;;5053864;28;20184;-57
2022/06/15 11:44:05;;;;;;;10.02;2.85;;;28.10;99.90;;;;;;5053091;28;20176;-58
2022/06/15 11:47:02;;;;;;;10.50;2.30;;;27.80;99.90;;;;;;5053510;28;20657;-57
2022/06/15 11:49:47;;;;;;;8.00;2.25;;;27.20;99.90;;;;;;5053294;28;20323;-57
2022/06/15 11:52:34;;;;;;;6.80;2.22;;;27.30;99.90;;;;;;5053424;28;20256;-57
2022/06/15 11:55:25;;;;;;;6.60;2.35;;;26.80;99.90;;;;;;5053394;28;20176;-57
2022/06/15 11:58:15;;;;;;;9.60;2.40;;;26.50;99.90;;;;;;5046715;28;20648;-58
2022/06/15 12:01:07;;;;;;;6.50;1.80;;;26.70;99.90;;;;;;5053422;28;20197;-59
2022/06/15 12:03:59;;;;;;;7.03;2.25;;;26.60;99.90;;;;;;5053303;28;20168;-57
2022/06/15 12:06:33;;;;;;;6.90;1.95;;;26.70;99.90;;;;;;5053493;28;20209;-58
2022/06/15 12:09:16;;;;;;;5.97;1.92;;;27.00;99.90;;;;;;5053196;28;20240;-58
2022/06/15 12:14:36;;;;;;;7.63;2.40;;;27.00;99.90;;;;;;5053296;28;20207;-57
2022/06/15 12:17:17;;;;;;;9.50;2.10;;;26.30;99.90;;;;;;5051733;28;20177;-58
2022/06/15 12:19:57;;;;;;;8.98;2.50;;;26.60;99.90;;;;;;5052998;28;20196;-57
2022/06/15 12:22:33;;;;;;;5.85;2.00;;;26.60;99.90;;;;;;5052929;28;20161;-58
2022/06/15 12:24:58;;;;;;;7.75;2.42;;;27.70;99.90;;;;;;5052901;28;20180;-58
2022/06/15 12:27:50;;;;;;;4.68;1.83;;;28.60;99.90;;;;;;5053008;28;20632;-58
2022/06/15 12:30:26;;;;;;;6.70;1.77;;;28.40;99.90;;;;;;5052666;28;20213;-58
2022/06/15 12:33:41;;;;;;;10.10;2.40;;;28.40;99.90;;;;;;5052774;28;20231;-58
2022/06/15 12:36:27;;;;;;;5.30;1.38;;;28.30;99.90;;;;;;5052698;28;20177;-59
2022/06/15 12:39:05;;;;;;;4.25;1.60;;;29.00;99.90;;;;;;5052646;28;20191;-58
2022/06/15 12:44:24;;;;;;;8.43;1.55;;;27.50;99.90;;;;;;5052638;28;20600;-58
2022/06/15 12:46:51;;;;;;;6.82;1.60;;;27.70;99.90;;;;;;5052361;28;20169;-58
2022/06/15 12:49:30;;;;;;;4.32;1.40;;;27.70;99.90;;;;;;5052180;28;20228;-58
2022/06/15 12:51:56;;;;;;;5.80;1.65;;;28.20;99.90;;;;;;5052334;28;20694;-59
2022/06/15 12:54:40;;;;;;;5.70;1.35;;;28.50;99.90;;;;;;5051394;28;20316;-58
2022/06/15 12:57:30;;;;;;;4.28;1.45;;;29.00;99.90;;;;;;5052043;28;20169;-58
2022/06/15 13:00:05;;;;;;;6.32;1.60;;;29.50;99.90;;;;;;5052344;28;20539;-59
2022/06/15 13:02:31;;;;;;;5.75;1.77;;;29.20;99.90;;;;;;5052381;28;20275;-59
2022/06/15 13:05:09;;;;;;;3.75;1.50;;;29.10;99.90;;;;;;5052159;28;20535;-58
2022/06/15 13:07:36;;;;;;;5.05;1.52;;;29.00;99.90;;;;;;5051946;28;20181;-59
2022/06/15 13:10:08;;;;;;;4.68;1.65;;;28.20;99.90;;;;;;5051855;28;20300;-58
2022/06/15 13:12:44;;;;;;;5.03;1.60;;;27.40;99.90;;;;;;5051902;28;20161;-58
2022/06/15 13:15:51;;;;;;;3.45;1.52;;;26.80;99.90;;;;;;5051940;28;20184;-58
2022/06/15 13:18:19;;;;;;;5.40;1.63;;;27.00;99.90;;;;;;5051761;28;20290;-59
2022/06/15 13:20:48;;;;;;;3.90;1.23;;;26.90;99.90;;;;;;5051789;28;20231;-57
2022/06/15 13:23:17;;;;;;;7.70;1.50;;;27.00;99.90;;;;;;5040556;28;20204;-58
2022/06/15 13:25:56;;;;;;;6.38;1.75;;;27.10;99.90;;;;;;5049744;28;20685;-58
2022/06/15 13:28:32;;;;;;;15.32;2.67;;;27.10;99.90;;;;;;5044925;28;20668;-59
2022/06/15 13:31:01;;;;;;;33.97;3.58;;;26.90;99.90;;;;;;5031582;28;20166;-58
2022/06/15 13:33:51;;;;;;;18.33;2.85;;;26.90;99.90;;;;;;5031902;28;20181;-59